Date,TemperatureHighF,TemperatureAvgF,TemperatureLowF,DewpointHighF,DewpointAvgF,DewpointLowF,HumidityHigh,HumidityAvg,HumidityLow,PressureMaxIn,PressureMinIn,WindSpeedMaxMPH,WindSpeedAvgMPH,GustSpeedMaxMPH,PrecipitationSumIn
2013-5-1,85.5,73.9,61.2,61.1,55.8,48.6,88,57,30,30.11,29.96,8,2,16,0.00
2013-5-2,69.8,62.6,47.3,60.5,54.6,46.8,99,76,63,30.18,30.09,7,3,17,0.27
2013-5-3,63.1,54.1,44.8,62.3,53.6,44.0,99,98,95,30.13,29.83,9,4,19,0.73
2013-5-4,61.7,61.1,60.4,60.3,59.9,59.4,99,96,93,29.88,29.87,8,4,14,0.06
2013-5-8,81.5,73.4,66.4,56.3,47.3,38.6,70,42,22,30.00,29.96,2,0,3,0.00
2013-5-9,72.1,64.7,62.6,64.8,60.4,56.3,99,86,66,30.00,29.84,6,1,14,0.38
2013-5-13,66.6,52.5,40.5,39.8,29.8,17.1,83,47,23,30.22,30.14,7,2,13,0.00
2013-5-14,90.9,70.6,56.1,61.9,48.0,30.1,77,47,23,30.13,29.72,4,2,7,0.00
2013-5-15,84.2,76.1,61.7,60.0,57.4,52.8,94,54,38,29.88,29.74,4,2,7,0.14
2013-5-16,85.1,72.2,59.0,66.1,60.1,53.1,99,71,36,29.96,29.88,2,1,5,0.25
2013-5-17,82.2,71.7,62.2,67.6,62.1,55.5,99,75,40,30.01,29.95,4,1,7,0.08
2013-5-18,82.0,73.0,64.8,67.4,64.8,62.1,99,78,51,30.04,29.93,5,2,8,0.01
2013-5-19,90.1,80.0,66.4,72.1,70.2,64.9,99,73,52,29.93,29.74,5,3,13,0.00
2013-5-20,84.0,80.0,64.4,70.0,63.8,61.0,99,59,48,29.87,29.71,8,4,16,0.18
2013-5-21,81.5,74.8,63.3,67.5,65.6,62.5,97,74,58,29.76,29.67,4,2,9,1.04
2013-5-22,69.6,66.9,60.8,67.4,64.4,60.2,98,92,79,29.73,29.67,3,1,5,0.19
2013-5-23,63.5,59.4,52.2,62.6,58.2,50.5,99,96,84,29.95,29.83,5,2,7,0.06
2013-5-24,60.3,53.0,48.0,52.7,49.9,47.8,99,90,75,30.02,29.96,4,2,6,0.01
2013-5-25,62.6,51.7,38.1,34.3,27.4,17.1,83,43,23,30.21,30.00,8,4,14,0.00
2013-5-26,70.0,56.7,40.5,59.3,42.2,27.6,99,66,23,30.22,30.06,8,2,14,0.09